createdAt,value
2023-01-05T00:00:31.407Z,10.90
2023-01-05T00:01:31.319Z,12.90
2023-01-05T00:02:31.381Z,9.50
2023-01-05T00:03:31.317Z,12.20
2023-01-05T00:04:31.346Z,13.70
2023-01-05T00:05:31.287Z,10.70
2023-01-05T00:06:31.253Z,11.40
2023-01-05T00:07:31.242Z,12.10
2023-01-05T00:08:36.734Z,13.30
2023-01-05T00:09:32.240Z,13.50
2023-01-05T00:10:31.212Z,11.10
2023-01-05T00:11:31.200Z,10.90
2023-01-05T00:12:31.181Z,12.30
2023-01-05T00:13:31.167Z,12.80
2023-01-05T00:14:31.196Z,10.60
2023-01-05T00:15:31.131Z,9.30
2023-01-05T00:16:31.172Z,13.50
2023-01-05T00:18:25.488Z,13.20
2023-01-05T00:19:25.459Z,10.40
2023-01-05T00:20:25.433Z,11.00
2023-01-05T00:21:25.409Z,11.60
2023-01-05T00:22:25.409Z,11.10
2023-01-05T00:23:25.390Z,11.00
2023-01-05T00:24:25.363Z,10.90
2023-01-05T00:25:25.440Z,10.30
2023-01-05T00:26:25.353Z,10.00
2023-01-05T00:27:25.322Z,12.30
2023-01-05T00:28:25.312Z,12.10
2023-01-05T00:29:25.293Z,11.30
2023-01-05T00:30:25.302Z,12.60
2023-01-05T00:31:25.329Z,9.80
2023-01-05T00:32:25.279Z,10.20
2023-01-05T00:33:25.231Z,14.20
2023-01-05T00:34:25.234Z,12.20
2023-01-05T00:35:25.244Z,8.70
2023-01-05T00:36:25.195Z,13.60
2023-01-05T00:37:25.183Z,14.50
2023-01-05T00:38:25.191Z,13.70
2023-01-05T00:39:25.156Z,12.10
2023-01-05T00:40:25.199Z,16.60
2023-01-05T00:41:25.153Z,11.60
2023-01-05T00:42:25.125Z,10.30
2023-01-05T00:43:25.114Z,9.70
2023-01-05T00:44:25.077Z,15.20
2023-01-05T00:45:25.076Z,13.50
2023-01-05T00:46:25.102Z,13.60
2023-01-05T00:47:25.059Z,15.10
2023-01-05T00:48:25.092Z,11.80
2023-01-05T00:49:25.018Z,12.60
2023-01-05T00:50:25.025Z,11.20
2023-01-05T00:51:24.980Z,12.50
2023-01-05T00:52:24.998Z,12.10
2023-01-05T00:53:24.974Z,11.50
2023-01-05T00:54:24.961Z,12.70
2023-01-05T00:55:24.931Z,11.40
2023-01-05T00:56:24.913Z,12.10
2023-01-05T00:57:24.915Z,10.80
2023-01-05T00:58:24.922Z,12.10
2023-01-05T00:59:24.868Z,11.90
2023-01-05T01:00:24.860Z,13.60
2023-01-05T01:01:24.931Z,14.80
2023-01-05T01:02:24.927Z,10.80
2023-01-05T01:03:24.879Z,10.70
2023-01-05T01:04:24.835Z,12.40
2023-01-05T01:05:24.812Z,10.50
2023-01-05T01:06:24.783Z,12.80
2023-01-05T01:07:24.769Z,14.00
2023-01-05T01:08:24.751Z,11.20
2023-01-05T01:09:24.741Z,14.10
2023-01-05T01:10:24.740Z,10.10
2023-01-05T01:11:24.736Z,10.10
2023-01-05T01:12:24.749Z,13.50
2023-01-05T01:13:24.688Z,9.40
2023-01-05T01:14:24.674Z,11.90
2023-01-05T01:15:24.644Z,13.10
2023-01-05T01:16:24.677Z,14.70
2023-01-05T01:17:24.629Z,13.10
2023-01-05T01:18:24.612Z,12.00
2023-01-05T01:19:25.557Z,10.90
2023-01-05T01:20:24.592Z,11.40
2023-01-05T01:21:24.574Z,11.80
2023-01-05T01:22:24.577Z,12.30
2023-01-05T01:23:24.543Z,12.40
2023-01-05T01:24:24.512Z,13.80
2023-01-05T01:25:24.515Z,12.10
2023-01-05T01:26:24.500Z,11.50
2023-01-05T01:27:24.477Z,13.90
2023-01-05T01:28:24.473Z,11.40
2023-01-05T01:29:24.477Z,13.50
2023-01-05T01:30:24.541Z,13.10
2023-01-05T01:31:24.441Z,12.00
2023-01-05T01:32:24.452Z,12.50
2023-01-05T01:33:24.401Z,10.80
2023-01-05T01:34:24.392Z,10.20
2023-01-05T01:35:24.359Z,11.40
2023-01-05T01:36:24.392Z,12.80
2023-01-05T01:37:24.355Z,11.90
2023-01-05T01:38:24.315Z,12.70
2023-01-05T01:39:24.331Z,12.50
2023-01-05T01:40:24.292Z,12.50
2023-01-05T01:41:24.340Z,9.40
2023-01-05T01:42:24.309Z,13.20
2023-01-05T01:43:24.252Z,11.20
2023-01-05T01:44:24.277Z,11.80
2023-01-05T01:45:24.235Z,13.30
2023-01-05T01:46:24.335Z,11.10
2023-01-05T01:47:24.213Z,16.90
2023-01-05T01:48:24.238Z,10.60
2023-01-05T01:49:24.175Z,11.40
2023-01-05T01:50:24.174Z,12.50
2023-01-05T01:51:24.140Z,11.30
2023-01-05T01:52:24.139Z,12.20
2023-01-05T01:53:24.112Z,15.40
2023-01-05T01:54:24.130Z,11.60
2023-01-05T01:55:24.085Z,11.30
2023-01-05T01:56:24.071Z,14.30
2023-01-05T01:57:24.075Z,14.50
2023-01-05T01:58:24.187Z,12.00
2023-01-05T01:59:24.064Z,12.60
2023-01-05T02:00:24.110Z,11.10
2023-01-05T02:01:24.204Z,15.10
2023-01-05T02:02:24.186Z,11.80
2023-01-05T02:03:23.995Z,11.70
2023-01-05T02:04:24.018Z,9.30
2023-01-05T02:05:23.966Z,9.80
2023-01-05T02:06:24.057Z,11.50
2023-01-05T02:07:23.922Z,12.60
2023-01-05T02:08:23.932Z,10.40
2023-01-05T02:09:23.895Z,13.50
2023-01-05T02:10:23.897Z,11.50
2023-01-05T02:11:24.082Z,10.30
2023-01-05T02:12:23.850Z,10.70
2023-01-05T02:13:29.479Z,11.40
2023-01-05T02:14:24.858Z,10.10
2023-01-05T02:15:23.808Z,11.10
2023-01-05T02:16:23.880Z,11.00
2023-01-05T02:17:23.789Z,12.00
2023-01-05T02:18:23.791Z,10.40
2023-01-05T02:19:23.761Z,10.70
2023-01-05T02:20:23.779Z,9.50
2023-01-05T02:21:23.748Z,11.90
2023-01-05T02:22:23.744Z,12.50
2023-01-05T02:23:23.725Z,13.10
2023-01-05T02:24:23.714Z,9.40
2023-01-05T02:25:23.797Z,12.10
2023-01-05T02:26:23.652Z,12.70
2023-01-05T02:27:23.688Z,12.50
2023-01-05T02:28:23.633Z,10.50
2023-01-05T02:29:23.615Z,13.70
2023-01-05T02:30:23.613Z,8.60
2023-01-05T02:31:23.670Z,12.40
2023-01-05T02:32:23.566Z,11.50
2023-01-05T02:33:23.572Z,11.50
2023-01-05T02:34:23.535Z,10.60
2023-01-05T02:35:23.541Z,13.70
2023-01-05T02:36:28.456Z,11.60
2023-01-05T02:37:23.507Z,9.10
2023-01-05T02:38:23.520Z,13.60
2023-01-05T02:39:23.480Z,9.80
2023-01-05T02:40:23.466Z,10.90
2023-01-05T02:41:23.461Z,11.20
2023-01-05T02:42:23.463Z,12.50
2023-01-05T02:43:23.430Z,13.20
2023-01-05T02:44:23.439Z,9.90
2023-01-05T02:45:23.381Z,12.90
2023-01-05T02:46:23.407Z,9.40
2023-01-05T02:47:23.357Z,11.20
2023-01-05T02:48:23.380Z,12.90
2023-01-05T02:49:23.340Z,13.80
2023-01-05T02:50:23.319Z,9.10
2023-01-05T02:51:23.343Z,11.00
2023-01-05T02:52:23.287Z,14.40
2023-01-05T02:53:23.271Z,8.50
2023-01-05T02:54:23.271Z,10.00
2023-01-05T02:55:23.251Z,9.70
2023-01-05T02:56:23.246Z,11.70
2023-01-05T02:57:23.243Z,11.60
2023-01-05T02:58:23.239Z,11.50
2023-01-05T02:59:23.185Z,12.00
2023-01-05T03:00:23.174Z,11.90
2023-01-05T03:01:23.280Z,16.50
2023-01-05T03:02:23.300Z,12.00
2023-01-05T03:03:23.164Z,12.70
2023-01-05T03:04:23.114Z,13.30
2023-01-05T03:05:23.117Z,12.20
2023-01-05T03:06:23.105Z,13.00
2023-01-05T03:07:23.067Z,9.40
2023-01-05T03:08:29.098Z,14.10
2023-01-05T03:09:24.183Z,15.30
2023-01-05T03:10:23.063Z,11.00
2023-01-05T03:11:23.037Z,11.20
2023-01-05T03:12:23.021Z,12.20
2023-01-05T03:13:22.998Z,11.30
2023-01-05T03:14:22.991Z,9.40
2023-01-05T03:15:22.986Z,13.10
2023-01-05T03:16:23.074Z,12.20
2023-01-05T03:17:22.955Z,12.70
2023-01-05T03:18:22.964Z,13.90
2023-01-05T03:19:22.933Z,13.40
2023-01-05T03:20:22.891Z,10.60
2023-01-05T03:21:22.879Z,12.70
2023-01-05T03:22:22.891Z,13.10
2023-01-05T03:23:22.900Z,12.90
2023-01-05T03:24:22.839Z,15.00
2023-01-05T03:25:22.881Z,13.10
2023-01-05T03:26:22.826Z,11.90
2023-01-05T03:27:22.801Z,12.90
2023-01-05T03:28:22.800Z,13.80
2023-01-05T03:29:22.809Z,11.90
2023-01-05T03:30:22.789Z,13.80
2023-01-05T03:31:22.846Z,12.70
2023-01-05T03:32:22.765Z,14.40
2023-01-05T03:33:22.732Z,12.80
2023-01-05T03:34:22.724Z,14.70
2023-01-05T03:35:22.694Z,13.50
2023-01-05T03:36:22.705Z,13.50
2023-01-05T03:37:22.663Z,11.90
2023-01-05T03:38:22.688Z,15.20
2023-01-05T03:39:22.639Z,10.20
2023-01-05T03:40:22.622Z,10.30
2023-01-05T03:41:22.636Z,9.60
2023-01-05T03:42:22.632Z,14.40
2023-01-05T03:43:22.585Z,15.00
2023-01-05T03:44:22.592Z,12.90
2023-01-05T03:45:22.566Z,11.30
2023-01-05T03:46:22.576Z,15.50
2023-01-05T03:47:22.524Z,11.10
2023-01-05T03:48:22.539Z,11.70
2023-01-05T03:49:22.511Z,13.30
2023-01-05T03:50:22.485Z,15.30
2023-01-05T03:51:22.528Z,16.90
2023-01-05T03:52:22.457Z,13.50
2023-01-05T03:53:22.430Z,12.40
2023-01-05T03:54:22.468Z,14.80
2023-01-05T03:55:22.441Z,12.20
2023-01-05T03:56:22.391Z,12.10
2023-01-05T03:57:22.429Z,14.20
2023-01-05T03:58:22.371Z,10.90
2023-01-05T03:59:22.587Z,11.20
2023-01-05T04:00:22.369Z,14.40
2023-01-05T04:01:22.417Z,10.80
2023-01-05T04:02:22.442Z,11.30
2023-01-05T04:03:25.170Z,14.30
2023-01-05T04:04:23.318Z,11.20
2023-01-05T04:05:22.284Z,13.60
2023-01-05T04:06:22.266Z,13.40
2023-01-05T04:07:22.278Z,12.00
2023-01-05T04:08:22.270Z,14.80
2023-01-05T04:09:22.224Z,16.70
2023-01-05T04:10:22.219Z,17.10
2023-01-05T04:11:22.225Z,13.10
2023-01-05T04:12:22.206Z,13.40
2023-01-05T04:13:22.197Z,12.60
2023-01-05T04:14:22.153Z,12.10
2023-01-05T04:15:22.149Z,13.50
2023-01-05T04:16:22.204Z,12.60
2023-01-05T04:17:22.121Z,14.40
2023-01-05T04:18:22.104Z,15.70
2023-01-05T04:19:22.113Z,14.70
2023-01-05T04:20:22.087Z,14.50
2023-01-05T04:21:22.098Z,11.00
2023-01-05T04:22:27.015Z,16.00
2023-01-05T04:23:23.069Z,12.90
2023-01-05T04:24:22.021Z,14.60
2023-01-05T04:25:22.025Z,12.30
2023-01-05T04:26:22.003Z,13.60
2023-01-05T04:27:21.981Z,16.60
2023-01-05T04:28:21.952Z,13.00
2023-01-05T04:29:21.973Z,10.70
2023-01-05T04:30:21.922Z,16.00
2023-01-05T04:31:21.978Z,13.60
2023-01-05T04:32:21.927Z,14.90
2023-01-05T04:33:21.882Z,13.90
2023-01-05T04:34:21.914Z,13.30
2023-01-05T04:35:21.859Z,12.80
2023-01-05T04:36:21.845Z,13.90
2023-01-05T04:37:21.829Z,13.40
2023-01-05T04:38:21.826Z,10.10
2023-01-05T04:39:21.821Z,16.20
2023-01-05T04:40:21.821Z,16.60
2023-01-05T04:41:21.785Z,13.40
2023-01-05T04:42:21.764Z,14.60
2023-01-05T04:43:21.761Z,12.90
2023-01-05T04:44:21.743Z,13.30
2023-01-05T04:45:21.746Z,15.80
2023-01-05T04:46:21.710Z,13.90
2023-01-05T04:47:21.694Z,10.80
2023-01-05T04:48:21.683Z,14.40
2023-01-05T04:49:21.687Z,12.40
2023-01-05T04:50:21.665Z,13.10
2023-01-05T04:51:21.683Z,12.90
2023-01-05T04:52:21.664Z,13.10
2023-01-05T04:53:21.623Z,12.30
2023-01-05T04:54:21.594Z,12.80
2023-01-05T04:55:21.697Z,10.90
2023-01-05T04:56:21.564Z,12.70
2023-01-05T04:57:21.567Z,16.00
2023-01-05T04:58:21.530Z,16.00
2023-01-05T04:59:21.531Z,12.80
2023-01-05T05:00:21.514Z,13.80
2023-01-05T05:01:21.604Z,13.30
2023-01-05T05:02:21.653Z,13.40
2023-01-05T05:03:21.515Z,13.50
2023-01-05T05:04:21.466Z,13.00
2023-01-05T05:05:21.468Z,16.00
2023-01-05T05:06:21.457Z,11.30
2023-01-05T05:07:21.434Z,16.00
2023-01-05T05:08:21.403Z,14.60
2023-01-05T05:09:21.405Z,12.90
2023-01-05T05:10:21.376Z,16.80
2023-01-05T05:11:21.365Z,12.90
2023-01-05T05:12:21.364Z,17.10
2023-01-05T05:13:21.349Z,13.60
2023-01-05T05:14:21.355Z,15.50
2023-01-05T05:15:21.318Z,18.60
2023-01-05T05:16:21.373Z,16.10
2023-01-05T05:17:21.285Z,15.20
2023-01-05T05:18:21.294Z,14.10
2023-01-05T05:19:21.271Z,17.50
2023-01-05T05:20:21.241Z,15.60
2023-01-05T05:21:21.236Z,18.30
2023-01-05T05:22:21.228Z,12.90
2023-01-05T05:23:21.208Z,11.60
2023-01-05T05:24:21.220Z,14.10
2023-01-05T05:25:21.184Z,17.00
2023-01-05T05:26:21.151Z,17.00
2023-01-05T05:27:21.147Z,15.40
2023-01-05T05:28:21.128Z,15.60
2023-01-05T05:29:21.139Z,13.20
2023-01-05T05:30:21.119Z,15.80
2023-01-05T05:31:21.140Z,14.10
2023-01-05T05:32:21.075Z,17.20
2023-01-05T05:33:21.053Z,13.20
2023-01-05T05:34:21.053Z,14.60
2023-01-05T05:35:21.032Z,12.00
2023-01-05T05:36:21.021Z,14.50
2023-01-05T05:37:20.999Z,13.60
2023-01-05T05:38:21.013Z,14.80
2023-01-05T05:39:21.018Z,17.00
2023-01-05T05:40:20.983Z,13.50
2023-01-05T05:41:20.967Z,15.70
2023-01-05T05:42:20.932Z,14.70
2023-01-05T05:43:20.951Z,13.30
2023-01-05T05:44:20.899Z,16.10
2023-01-05T05:45:20.915Z,13.90
2023-01-05T05:46:20.922Z,14.10
2023-01-05T05:47:20.903Z,14.90
2023-01-05T05:48:20.856Z,15.80
2023-01-05T05:49:20.841Z,14.90
2023-01-05T05:50:20.853Z,15.00
2023-01-05T05:51:20.818Z,17.80
2023-01-05T05:52:20.849Z,14.30
2023-01-05T05:53:20.813Z,13.10
2023-01-05T05:54:20.850Z,21.30
2023-01-05T05:55:20.779Z,14.90
2023-01-05T05:56:20.772Z,16.80
2023-01-05T05:57:20.770Z,16.90
2023-01-05T05:58:20.740Z,16.50
2023-01-05T05:59:20.731Z,16.70
2023-01-05T06:00:20.703Z,16.10
2023-01-05T06:01:20.733Z,18.20
2023-01-05T06:02:20.714Z,16.40
2023-01-05T06:03:20.703Z,14.60
2023-01-05T06:04:20.679Z,17.30
2023-01-05T06:05:20.657Z,15.10
2023-01-05T06:06:20.635Z,17.10
2023-01-05T06:07:20.600Z,13.20
2023-01-05T06:08:20.597Z,18.30
2023-01-05T06:09:20.585Z,17.60
2023-01-05T06:10:20.557Z,17.30
2023-01-05T06:11:20.550Z,14.90
2023-01-05T06:12:20.538Z,17.40
2023-01-05T06:13:20.539Z,18.90
2023-01-05T06:14:20.527Z,16.20
2023-01-05T06:15:20.468Z,17.20
2023-01-05T06:16:20.491Z,18.30
2023-01-05T06:17:20.466Z,14.80
2023-01-05T06:18:20.474Z,17.50
2023-01-05T06:19:20.464Z,16.60
2023-01-05T06:20:20.412Z,18.00
2023-01-05T06:21:20.406Z,18.60
2023-01-05T06:22:20.396Z,17.10
2023-01-05T06:23:20.388Z,19.60
2023-01-05T06:24:20.382Z,17.30
2023-01-05T06:25:20.367Z,19.00
2023-01-05T06:26:20.319Z,18.20
2023-01-05T06:27:20.322Z,20.90
2023-01-05T06:28:20.593Z,17.70
2023-01-05T06:29:20.307Z,16.80
2023-01-05T06:30:20.301Z,18.90
2023-01-05T06:31:20.342Z,15.40
2023-01-05T06:32:20.255Z,17.70
2023-01-05T06:33:20.259Z,22.00
2023-01-05T06:34:20.231Z,20.60
2023-01-05T06:35:20.230Z,21.40
2023-01-05T06:36:20.219Z,19.10
2023-01-05T06:37:20.197Z,17.30
2023-01-05T06:38:27.704Z,20.80
2023-01-05T06:39:20.186Z,19.70
2023-01-05T06:40:20.159Z,16.40
2023-01-05T06:41:20.178Z,20.50
2023-01-05T06:42:23.371Z,19.30
2023-01-05T06:43:20.111Z,17.70
2023-01-05T06:44:20.119Z,17.80
2023-01-05T06:45:20.086Z,18.50
2023-01-05T06:46:20.115Z,17.60
2023-01-05T06:47:20.096Z,20.40
2023-01-05T06:48:20.037Z,17.70
2023-01-05T06:49:20.031Z,23.00
2023-01-05T06:50:20.122Z,19.90
2023-01-05T06:51:20.021Z,21.90
2023-01-05T06:52:19.997Z,22.90
2023-01-05T06:53:20.025Z,17.90
2023-01-05T06:54:20.017Z,19.70
2023-01-05T06:55:19.969Z,23.90
2023-01-05T06:56:19.937Z,16.80
2023-01-05T06:57:19.919Z,18.90
2023-01-05T06:58:19.996Z,22.50
2023-01-05T06:59:19.914Z,18.70
2023-01-05T07:00:19.877Z,19.70
2023-01-05T07:01:20.007Z,20.10
2023-01-05T07:02:19.944Z,18.90
2023-01-05T07:03:19.865Z,17.10
2023-01-05T07:04:19.886Z,18.70
2023-01-05T07:05:19.810Z,21.70
2023-01-05T07:06:19.831Z,21.60
2023-01-05T07:07:19.788Z,20.20
2023-01-05T07:08:19.801Z,20.00
2023-01-05T07:09:19.769Z,20.80
2023-01-05T07:10:19.749Z,20.70
2023-01-05T07:11:19.760Z,16.00
2023-01-05T07:12:19.750Z,24.00
2023-01-05T07:13:19.776Z,18.60
2023-01-05T07:14:19.712Z,19.60
2023-01-05T07:15:19.690Z,22.00
2023-01-05T07:16:19.723Z,19.30
2023-01-05T07:17:19.655Z,21.20
2023-01-05T07:18:19.695Z,18.80
2023-01-05T07:19:19.670Z,20.90
2023-01-05T07:20:19.633Z,23.50
2023-01-05T07:21:19.652Z,22.30
2023-01-05T07:22:19.604Z,18.40
2023-01-05T07:23:19.614Z,21.00
2023-01-05T07:24:19.585Z,25.60
2023-01-05T07:25:19.589Z,22.80
2023-01-05T07:26:19.542Z,20.10
2023-01-05T07:27:19.570Z,21.80
2023-01-05T07:28:19.531Z,23.50
2023-01-05T07:29:19.499Z,23.10
2023-01-05T07:30:19.512Z,24.90
2023-01-05T07:31:19.544Z,18.50
2023-01-05T07:32:19.503Z,26.20
2023-01-05T07:33:19.466Z,25.50
2023-01-05T07:34:19.454Z,21.80
2023-01-05T07:35:19.450Z,22.20
2023-01-05T07:36:19.418Z,23.40
2023-01-05T07:37:19.399Z,24.70
2023-01-05T07:38:19.416Z,26.70
2023-01-05T07:39:19.403Z,24.50
2023-01-05T07:40:19.368Z,18.60
2023-01-05T07:41:19.355Z,26.10
2023-01-05T07:42:19.350Z,22.30
2023-01-05T07:43:19.358Z,21.30
2023-01-05T07:44:19.325Z,23.10
2023-01-05T07:45:19.293Z,24.60
2023-01-05T07:46:19.321Z,24.00
2023-01-05T07:47:19.285Z,24.50
2023-01-05T07:48:23.527Z,25.60
2023-01-05T07:49:19.266Z,25.00
2023-01-05T07:50:19.248Z,24.60
2023-01-05T07:51:19.228Z,21.50
2023-01-05T07:52:19.220Z,26.30
2023-01-05T07:53:19.217Z,25.00
2023-01-05T07:54:19.228Z,26.00
2023-01-05T07:55:19.174Z,24.30
2023-01-05T07:56:19.168Z,17.80
2023-01-05T07:57:19.164Z,20.10
2023-01-05T07:58:19.139Z,20.50
2023-01-05T07:59:19.157Z,22.90
2023-01-05T08:00:19.121Z,18.40
2023-01-05T08:01:19.160Z,24.10
2023-01-05T08:02:19.200Z,22.90
2023-01-05T08:03:19.075Z,25.00
2023-01-05T08:04:19.083Z,26.50
2023-01-05T08:05:19.034Z,26.50
2023-01-05T08:06:19.042Z,25.00
2023-01-05T08:07:19.013Z,22.60
2023-01-05T08:08:24.122Z,23.40
2023-01-05T08:09:19.980Z,21.90
2023-01-05T08:10:19.134Z,24.80
2023-01-05T08:11:18.988Z,26.50
2023-01-05T08:12:18.976Z,25.50
2023-01-05T08:13:18.940Z,23.40
2023-01-05T08:14:18.947Z,21.20
2023-01-05T08:15:18.910Z,21.50
2023-01-05T08:16:18.948Z,22.70
2023-01-05T08:17:18.911Z,22.80
2023-01-05T08:18:18.893Z,22.90
2023-01-05T08:19:18.870Z,25.10
2023-01-05T08:20:18.873Z,25.70
2023-01-05T08:21:18.818Z,26.30
2023-01-05T08:22:18.843Z,28.00
2023-01-05T08:23:25.764Z,29.80
2023-01-05T08:24:19.831Z,25.50
2023-01-05T08:25:18.781Z,23.30
2023-01-05T08:26:18.800Z,30.30
2023-01-05T08:27:18.782Z,27.00
2023-01-05T08:28:18.733Z,29.90
2023-01-05T08:29:18.727Z,22.00
2023-01-05T08:30:18.730Z,24.80
2023-01-05T08:31:18.713Z,25.10
2023-01-05T08:32:18.714Z,28.40
2023-01-05T08:33:18.677Z,24.50
2023-01-05T08:34:18.651Z,22.10
2023-01-05T08:35:18.656Z,27.10
2023-01-05T08:36:18.628Z,24.30
2023-01-05T08:37:18.597Z,21.20
2023-01-05T08:38:18.616Z,22.00
2023-01-05T08:39:18.576Z,22.50
2023-01-05T08:40:18.570Z,30.40
2023-01-05T08:41:18.546Z,24.00
2023-01-05T08:42:18.576Z,24.40
2023-01-05T08:43:18.533Z,24.00
2023-01-05T08:44:18.562Z,25.00
2023-01-05T08:45:18.499Z,25.80
2023-01-05T08:46:18.530Z,24.60
2023-01-05T08:47:18.617Z,22.50
2023-01-05T08:48:18.476Z,22.10
2023-01-05T08:49:18.469Z,23.40
2023-01-05T08:50:18.463Z,26.00
2023-01-05T08:51:18.417Z,22.60
2023-01-05T08:52:18.395Z,21.20
2023-01-05T08:53:26.006Z,26.50
2023-01-05T08:54:18.408Z,23.20
2023-01-05T08:55:18.390Z,25.10
2023-01-05T08:56:18.356Z,20.90
2023-01-05T08:57:18.353Z,27.40
2023-01-05T08:58:18.353Z,23.90
2023-01-05T08:59:18.321Z,28.30
2023-01-05T09:00:18.325Z,24.00
2023-01-05T09:01:18.427Z,23.20
2023-01-05T09:02:25.270Z,24.30
2023-01-05T09:03:19.339Z,24.30
2023-01-05T09:04:18.243Z,22.10
2023-01-05T09:05:18.224Z,21.30
2023-01-05T09:06:18.249Z,24.30
2023-01-05T09:07:18.204Z,29.00
2023-01-05T09:08:18.179Z,22.40
2023-01-05T09:09:18.174Z,24.70
2023-01-05T09:10:18.172Z,22.70
2023-01-05T09:11:26.943Z,25.70
2023-01-05T09:12:29.271Z,21.80
2023-01-05T09:13:19.140Z,24.30
2023-01-05T09:14:18.123Z,30.00
2023-01-05T09:15:18.093Z,28.50
2023-01-05T09:16:35.056Z,22.10
2023-01-05T09:17:19.111Z,26.00
2023-01-05T09:18:18.076Z,19.90
2023-01-05T09:19:18.057Z,28.10
2023-01-05T09:20:18.069Z,26.60
2023-01-05T09:21:18.024Z,19.60
2023-01-05T09:22:18.039Z,16.50
2023-01-05T09:23:17.984Z,22.20
2023-01-05T09:24:18.010Z,20.80
2023-01-05T09:25:17.992Z,24.30
2023-01-05T09:26:18.002Z,25.90
2023-01-05T09:27:17.953Z,20.60
2023-01-05T09:28:17.949Z,24.30
2023-01-05T09:29:17.945Z,29.60
2023-01-05T09:30:17.945Z,22.80
2023-01-05T09:31:17.910Z,21.90
2023-01-05T09:32:17.876Z,24.80
2023-01-05T09:33:17.853Z,22.60
2023-01-05T09:34:17.836Z,23.70
2023-01-05T09:35:17.854Z,26.30
2023-01-05T09:36:17.816Z,25.10
2023-01-05T09:37:17.820Z,21.90
2023-01-05T09:38:17.781Z,23.80
2023-01-05T09:39:17.809Z,22.30
2023-01-05T09:40:17.757Z,24.90
2023-01-05T09:41:17.743Z,23.70
2023-01-05T09:42:17.728Z,29.00
2023-01-05T09:43:17.788Z,24.90
2023-01-05T09:44:17.730Z,25.60
2023-01-05T09:45:17.686Z,24.50
2023-01-05T09:46:17.744Z,20.90
2023-01-05T09:47:17.662Z,22.10
2023-01-05T09:48:17.641Z,25.90
2023-01-05T09:49:17.662Z,21.90
2023-01-05T09:50:17.650Z,28.60
2023-01-05T09:51:17.606Z,23.20
2023-01-05T09:52:17.590Z,24.00
2023-01-05T09:53:17.597Z,23.20
2023-01-05T09:54:41.325Z,20.00
2023-01-05T09:55:17.591Z,20.50
2023-01-05T09:56:34.541Z,22.50
2023-01-05T09:57:18.529Z,26.60
2023-01-05T09:58:17.536Z,21.70
2023-01-05T09:59:17.491Z,22.50
2023-01-05T10:00:17.483Z,23.10
2023-01-05T10:01:17.664Z,24.70
2023-01-05T10:02:17.470Z,21.30
2023-01-05T10:03:44.746Z,22.50
2023-01-05T10:04:18.555Z,24.40
2023-01-05T10:05:17.545Z,23.30
2023-01-05T10:06:17.411Z,25.80
2023-01-05T10:07:17.436Z,21.30
2023-01-05T10:08:17.377Z,19.20
2023-01-05T10:09:17.455Z,18.70
2023-01-05T10:10:17.346Z,21.80
2023-01-05T10:11:17.342Z,24.00
2023-01-05T10:12:17.360Z,18.60
2023-01-05T10:13:17.315Z,20.70
2023-01-05T10:14:17.295Z,20.90
2023-01-05T10:15:17.303Z,20.80
2023-01-05T10:16:17.326Z,20.50
2023-01-05T10:17:40.561Z,19.10
2023-01-05T10:18:18.322Z,24.70
2023-01-05T10:19:17.277Z,19.60
2023-01-05T10:20:17.210Z,19.00
2023-01-05T10:21:17.196Z,17.00
2023-01-05T10:22:17.208Z,20.20
2023-01-05T10:23:18.597Z,21.90
2023-01-05T10:24:17.180Z,24.60
2023-01-05T10:25:17.159Z,17.30
2023-01-05T10:26:17.126Z,18.60
2023-01-05T10:27:25.856Z,21.00
2023-01-05T10:28:18.118Z,18.30
2023-01-05T10:29:17.081Z,20.80
2023-01-05T10:30:17.067Z,19.90
2023-01-05T10:31:17.144Z,17.00
2023-01-05T10:32:17.024Z,26.80
2023-01-05T10:33:40.038Z,18.80
2023-01-05T10:34:18.020Z,18.30
2023-01-05T10:35:34.265Z,19.80
2023-01-05T10:36:28.155Z,18.40
2023-01-05T10:37:18.011Z,17.80
2023-01-05T10:38:16.954Z,22.70
2023-01-05T10:39:16.950Z,21.30
2023-01-05T10:40:16.928Z,21.90
2023-01-05T10:41:16.948Z,19.00
2023-01-05T10:42:16.942Z,19.20
2023-01-05T10:43:16.895Z,20.00
2023-01-05T10:44:16.908Z,19.70
2023-01-05T10:45:16.861Z,18.00
2023-01-05T10:46:32.519Z,16.90
2023-01-05T10:47:17.864Z,14.30
2023-01-05T10:48:16.826Z,22.70
2023-01-05T10:49:16.795Z,17.00
2023-01-05T10:50:16.900Z,20.10
2023-01-05T10:51:16.768Z,16.30
2023-01-05T10:52:16.773Z,18.40
2023-01-05T10:53:16.741Z,23.20
2023-01-05T10:54:16.760Z,19.30
2023-01-05T10:55:16.741Z,17.80
2023-01-05T10:56:16.705Z,17.20
2023-01-05T10:57:16.714Z,17.00
2023-01-05T10:58:16.697Z,24.50
2023-01-05T10:59:16.701Z,14.90
2023-01-05T11:00:16.687Z,18.90
2023-01-05T11:01:16.707Z,18.20
2023-01-05T11:02:16.736Z,16.10
2023-01-05T11:03:16.659Z,17.20
2023-01-05T11:05:17.603Z,15.50
2023-01-05T11:06:16.571Z,17.90
2023-01-05T11:07:16.601Z,20.60
2023-01-05T11:08:16.579Z,15.90
2023-01-05T11:09:21.815Z,14.10
2023-01-05T11:10:17.501Z,15.70
2023-01-05T11:11:16.519Z,14.90
2023-01-05T11:12:16.492Z,16.50
2023-01-05T11:13:16.474Z,14.40
2023-01-05T11:14:16.481Z,17.40
2023-01-05T11:15:16.451Z,17.80
2023-01-05T11:16:16.487Z,16.00
2023-01-05T11:17:16.425Z,17.10
2023-01-05T11:18:16.426Z,13.90
2023-01-05T11:19:16.386Z,12.60
2023-01-05T11:20:16.405Z,16.10
2023-01-05T11:21:16.377Z,16.50
2023-01-05T11:22:16.328Z,19.40
2023-01-05T11:23:16.345Z,14.70
2023-01-05T11:24:16.333Z,18.70
2023-01-05T11:25:16.358Z,20.10
2023-01-05T11:26:16.295Z,17.90
2023-01-05T11:27:16.267Z,14.50
2023-01-05T11:28:16.294Z,18.80
2023-01-05T11:29:16.252Z,12.50
2023-01-05T11:30:16.372Z,16.20
2023-01-05T11:31:16.247Z,14.70
2023-01-05T11:32:16.233Z,11.50
2023-01-05T11:33:21.391Z,17.20
2023-01-05T11:34:17.174Z,12.00
2023-01-05T11:35:16.183Z,20.60
2023-01-05T11:36:24.880Z,15.10
2023-01-05T11:37:16.131Z,14.10
2023-01-05T11:38:16.123Z,15.20
2023-01-05T11:39:16.117Z,17.90
2023-01-05T11:40:16.106Z,15.70
2023-01-05T11:41:16.101Z,14.30
2023-01-05T11:42:21.522Z,15.70
2023-01-05T11:43:17.080Z,16.50
2023-01-05T11:44:16.039Z,13.80
2023-01-05T11:45:16.053Z,17.80
2023-01-05T11:46:16.063Z,16.90
2023-01-05T11:47:16.034Z,13.40
2023-01-05T11:48:16.007Z,13.10
2023-01-05T11:49:15.974Z,15.60
2023-01-05T11:50:15.986Z,16.70
2023-01-05T11:51:16.014Z,13.20
2023-01-05T11:52:23.623Z,12.10
2023-01-05T11:53:15.983Z,13.30
2023-01-05T11:54:15.906Z,16.20
2023-01-05T11:55:15.931Z,16.40
2023-01-05T11:56:15.965Z,11.70
2023-01-05T11:57:15.866Z,13.20
2023-01-05T11:58:15.963Z,16.20
2023-01-05T11:59:15.936Z,16.80
2023-01-05T12:00:15.836Z,12.00
2023-01-05T12:01:15.874Z,14.00
2023-01-05T12:02:15.927Z,12.10
2023-01-05T12:03:15.832Z,15.20
2023-01-05T12:04:15.776Z,14.80
2023-01-05T12:05:15.765Z,16.60
2023-01-05T12:06:15.735Z,15.70
2023-01-05T12:07:15.753Z,12.10
2023-01-05T12:08:15.764Z,14.90
2023-01-05T12:09:15.789Z,14.80
2023-01-05T12:10:15.673Z,13.90
2023-01-05T12:11:15.673Z,12.90
2023-01-05T12:12:15.656Z,12.20
2023-01-05T12:13:15.660Z,12.80
2023-01-05T12:14:15.620Z,12.70
2023-01-05T12:15:15.648Z,14.80
2023-01-05T12:16:15.695Z,11.70
2023-01-05T12:17:15.829Z,15.30
2023-01-05T12:18:15.625Z,12.30
2023-01-05T12:19:15.556Z,12.80
2023-01-05T12:20:15.533Z,13.00
2023-01-05T12:21:15.523Z,12.00
2023-01-05T12:22:15.523Z,15.50
2023-01-05T12:23:15.533Z,12.80
2023-01-05T12:24:15.483Z,13.90
2023-01-05T12:25:15.467Z,15.00
2023-01-05T12:26:15.450Z,16.60
2023-01-05T12:27:15.427Z,14.00
2023-01-05T12:28:29.260Z,13.60
2023-01-05T12:34:16.338Z,11.90
2023-01-05T12:35:15.342Z,13.60
2023-01-05T12:36:15.693Z,9.90
2023-01-05T12:37:15.321Z,11.50
2023-01-05T12:38:15.299Z,12.90
2023-01-05T12:39:25.729Z,14.80
2023-01-05T12:40:16.231Z,16.40
2023-01-05T12:41:15.209Z,16.60
2023-01-05T12:42:15.193Z,12.20
2023-01-05T12:43:15.188Z,13.80
2023-01-05T12:44:15.188Z,13.30
2023-01-05T12:45:15.157Z,11.10
2023-01-05T12:46:15.194Z,14.90
2023-01-05T12:47:15.144Z,10.90
2023-01-05T12:48:15.148Z,14.60
2023-01-05T12:49:15.229Z,13.70
2023-01-05T12:50:15.100Z,10.80
2023-01-05T12:51:15.060Z,11.90
2023-01-05T12:52:15.064Z,12.90
2023-01-05T12:53:15.036Z,10.70
2023-01-05T12:54:15.040Z,13.00
2023-01-05T12:55:15.036Z,9.70
2023-01-05T12:56:15.024Z,15.90
2023-01-05T12:57:15.083Z,13.00
2023-01-05T12:58:15.135Z,10.80
2023-01-05T12:59:14.967Z,11.50
2023-01-05T13:00:14.946Z,14.80